createdAt,value
2022-10-21T00:02:13.063Z,8.75
2022-10-21T00:04:46.695Z,8.79
2022-10-21T00:07:16.065Z,8.77
2022-10-21T00:09:57.212Z,8.76
2022-10-21T00:12:32.243Z,8.76
2022-10-21T00:15:10.924Z,8.69
2022-10-21T00:17:54.168Z,8.65
2022-10-21T00:20:27.694Z,8.58
2022-10-21T00:23:03.807Z,8.62
2022-10-21T00:25:30.924Z,8.64
2022-10-21T00:28:06.495Z,8.58
2022-10-21T00:30:45.253Z,8.59
2022-10-21T00:33:13.217Z,8.61
2022-10-21T00:35:45.271Z,8.63
2022-10-21T00:38:15.359Z,8.61
2022-10-21T00:40:42.667Z,8.64
2022-10-21T00:43:16.018Z,8.67
2022-10-21T00:45:43.870Z,8.69
2022-10-21T00:48:36.786Z,8.71
2022-10-21T00:51:10.594Z,8.66
2022-10-21T00:53:43.603Z,8.71
2022-10-21T00:56:17.253Z,8.71
2022-10-21T00:58:47.899Z,8.72
2022-10-21T01:01:21.479Z,8.73
2022-10-21T01:03:52.663Z,8.71
2022-10-21T01:06:21.121Z,8.62
2022-10-21T01:08:49.637Z,8.69
2022-10-21T01:11:21.002Z,8.65
2022-10-21T01:14:19.098Z,8.63
2022-10-21T01:17:20.563Z,8.61
2022-10-21T01:20:16.263Z,8.61
2022-10-21T01:22:55.949Z,8.61
2022-10-21T01:25:57.452Z,8.63
2022-10-21T01:28:50.362Z,8.62
2022-10-21T01:31:49.380Z,8.60
2022-10-21T01:34:39.126Z,8.59
2022-10-21T01:37:11.155Z,8.64
2022-10-21T01:40:27.298Z,8.60
2022-10-21T01:42:59.913Z,8.62
2022-10-21T01:45:32.009Z,8.61
2022-10-21T01:48:13.213Z,8.63
2022-10-21T01:51:06.450Z,8.70
2022-10-21T01:54:04.012Z,8.64
2022-10-21T01:56:52.051Z,8.68
2022-10-21T01:59:24.152Z,8.70
2022-10-21T02:02:03.920Z,8.73
2022-10-21T02:04:38.009Z,8.74
2022-10-21T02:07:09.625Z,8.75
2022-10-21T02:09:41.644Z,8.77
2022-10-21T02:12:11.429Z,8.74
2022-10-21T02:14:45.811Z,8.75
2022-10-21T02:17:22.290Z,8.81
2022-10-21T02:19:54.702Z,8.80
2022-10-21T02:22:28.367Z,8.81
2022-10-21T02:25:31.203Z,8.76
2022-10-21T02:28:06.996Z,8.72
2022-10-21T02:30:56.038Z,8.72
2022-10-21T02:33:50.506Z,8.71
2022-10-21T02:36:55.571Z,8.72
2022-10-21T02:39:35.423Z,8.75
2022-10-21T02:42:07.166Z,8.79
2022-10-21T02:44:34.843Z,8.80
2022-10-21T02:47:06.995Z,8.79
2022-10-21T02:49:37.323Z,8.80
2022-10-21T02:52:11.470Z,8.81
2022-10-21T02:54:40.957Z,8.82
2022-10-21T02:57:17.739Z,8.79
2022-10-21T02:59:47.328Z,8.77
2022-10-21T03:02:14.517Z,8.78
2022-10-21T03:04:41.539Z,8.80
2022-10-21T03:07:08.588Z,8.78
2022-10-21T03:09:37.152Z,8.79
2022-10-21T03:12:09.122Z,8.76
2022-10-21T03:14:35.835Z,8.77
2022-10-21T03:17:02.539Z,8.81
2022-10-21T03:19:30.445Z,8.92
2022-10-21T03:21:57.181Z,8.96
2022-10-21T03:24:28.467Z,8.82
2022-10-21T03:26:56.468Z,8.87
2022-10-21T03:29:26.924Z,8.83
2022-10-21T03:31:53.880Z,8.83
2022-10-21T03:34:23.975Z,8.81
2022-10-21T03:36:50.929Z,8.85
2022-10-21T03:39:17.815Z,8.84
2022-10-21T03:41:44.513Z,8.88
2022-10-21T03:44:11.696Z,8.92
2022-10-21T03:46:38.473Z,8.96
2022-10-21T03:49:08.528Z,8.94
2022-10-21T03:51:42.031Z,8.90
2022-10-21T03:54:08.867Z,8.85
2022-10-21T03:56:35.581Z,8.88
2022-10-21T03:59:02.272Z,8.91
2022-10-21T04:01:29.078Z,8.92
2022-10-21T04:03:55.993Z,8.93
2022-10-21T04:06:23.001Z,8.93
2022-10-21T04:08:49.809Z,8.91
2022-10-21T04:11:16.712Z,8.93
2022-10-21T04:13:51.222Z,8.93
2022-10-21T04:16:20.119Z,8.93
2022-10-21T04:36:55.332Z,8.79
2022-10-21T04:39:52.610Z,8.82
2022-10-21T04:42:19.764Z,8.85
2022-10-21T04:45:04.349Z,8.87
2022-10-21T04:48:04.860Z,8.88
2022-10-21T04:50:39.331Z,8.85
2022-10-21T04:53:10.895Z,8.84
2022-10-21T04:55:43.352Z,8.87
2022-10-21T05:00:58.849Z,8.84
2022-10-21T05:03:34.913Z,8.87
2022-10-21T05:06:24.397Z,8.79
2022-10-21T05:09:02.119Z,8.77
2022-10-21T05:15:09.795Z,8.69
2022-10-21T05:17:46.912Z,8.70
2022-10-21T05:20:42.089Z,8.71
2022-10-21T05:23:18.080Z,8.67
2022-10-21T05:25:52.071Z,8.71
2022-10-21T05:28:26.455Z,8.71
2022-10-21T05:31:06.365Z,8.71
2022-10-21T05:33:35.622Z,8.69
2022-10-21T05:36:12.147Z,8.71
2022-10-21T05:38:39.027Z,8.71
2022-10-21T05:41:10.698Z,8.76
2022-10-21T05:43:38.593Z,8.81
2022-10-21T05:46:09.743Z,8.79
2022-10-21T05:48:49.881Z,8.85
2022-10-21T05:51:26.707Z,8.78
2022-10-21T05:53:57.863Z,8.86
2022-10-21T05:56:30.177Z,8.83
2022-10-21T05:59:05.516Z,8.84
2022-10-21T06:01:39.701Z,8.82
2022-10-21T06:04:16.787Z,8.82
2022-10-21T06:06:43.979Z,8.87
2022-10-21T06:09:16.552Z,8.88
2022-10-21T06:11:45.882Z,8.90
2022-10-21T06:14:15.140Z,8.93
2022-10-21T06:19:32.915Z,8.91
2022-10-21T06:21:59.858Z,8.93
2022-10-21T06:24:30.848Z,8.99
2022-10-21T06:26:59.994Z,9.04
2022-10-21T06:29:32.017Z,9.06
2022-10-21T06:31:58.859Z,9.08
2022-10-21T06:34:35.418Z,9.08
2022-10-21T06:37:14.227Z,9.09
2022-10-21T06:39:49.564Z,9.14
2022-10-21T06:42:25.817Z,9.18
2022-10-21T06:45:00.562Z,9.17
2022-10-21T06:47:29.543Z,9.22
2022-10-21T06:50:32.620Z,9.25
2022-10-21T06:53:01.968Z,9.29
2022-10-21T07:32:39.441Z,9.71
2022-10-21T07:35:13.305Z,9.76
2022-10-21T07:40:31.393Z,9.75
2022-10-21T07:43:18.629Z,9.84
2022-10-21T07:46:07.072Z,9.93
2022-10-21T07:49:20.117Z,9.90
2022-10-21T07:51:49.756Z,9.95
2022-10-21T07:54:32.844Z,10.06
2022-10-21T07:57:06.163Z,10.00
2022-10-21T07:59:35.683Z,10.00
2022-10-21T08:02:15.057Z,10.01
2022-10-21T08:04:52.349Z,10.01
2022-10-21T08:07:24.094Z,10.05
2022-10-21T08:09:57.926Z,10.09
2022-10-21T08:12:36.327Z,10.11
2022-10-21T08:18:18.114Z,10.15
2022-10-21T08:20:46.371Z,10.25
2022-10-21T08:23:15.814Z,10.34
2022-10-21T08:26:04.417Z,10.41
2022-10-21T08:28:36.705Z,10.38
2022-10-21T08:31:32.087Z,10.32
2022-10-21T08:34:26.075Z,10.42
2022-10-21T08:36:55.833Z,10.57
2022-10-21T08:39:25.348Z,10.67
2022-10-21T08:44:55.366Z,10.86
2022-10-21T08:47:47.299Z,10.74
2022-10-21T08:50:32.002Z,10.74
2022-10-21T08:53:08.898Z,10.74
2022-10-21T08:58:47.614Z,10.74
2022-10-21T09:01:32.978Z,10.76
2022-10-21T10:14:33.370Z,12.45
2022-10-21T10:17:21.469Z,12.44
2022-10-21T10:20:20.446Z,12.37
2022-10-21T10:23:08.371Z,12.38
2022-10-21T10:25:37.941Z,12.38
2022-10-21T10:28:10.776Z,12.43
2022-10-21T10:30:41.661Z,12.46
2022-10-21T10:33:14.283Z,12.48
2022-10-21T10:35:48.308Z,12.57
2022-10-21T10:38:42.643Z,12.70
2022-10-21T10:44:29.799Z,12.79
2022-10-21T10:44:40.005Z,12.84
2022-10-21T10:47:11.295Z,12.93
2022-10-21T10:49:54.208Z,13.09
2022-10-21T10:52:24.347Z,13.37
2022-10-21T11:35:14.421Z,14.69
2022-10-21T11:47:13.264Z,14.40
2022-10-21T11:50:16.386Z,14.36
2022-10-21T12:06:17.516Z,14.28
2022-10-21T12:08:59.960Z,14.20
2022-10-21T12:12:04.534Z,14.22
2022-10-21T12:33:45.626Z,14.70
2022-10-21T12:36:16.781Z,14.71
2022-10-21T12:39:08.439Z,14.75
2022-10-21T12:42:51.304Z,14.67
2022-10-21T12:49:43.638Z,14.50
2022-10-21T12:52:21.378Z,14.50
2022-10-21T12:55:11.953Z,14.42
2022-10-21T12:57:44.067Z,14.37
2022-10-21T13:00:32.640Z,14.50
2022-10-21T13:03:22.239Z,14.44
2022-10-21T13:06:58.000Z,14.43
2022-10-21T13:10:01.589Z,14.37
2022-10-21T13:12:44.727Z,14.38
2022-10-21T13:15:52.122Z,14.39
2022-10-21T13:18:53.684Z,14.40
2022-10-21T13:21:29.674Z,14.44
2022-10-21T13:24:10.348Z,14.40
2022-10-21T13:26:58.883Z,14.32
2022-10-21T13:29:41.261Z,14.32
2022-10-21T13:32:14.146Z,14.26
2022-10-21T13:34:53.430Z,14.26
2022-10-21T13:37:57.267Z,14.10
2022-10-21T13:40:28.108Z,14.06
2022-10-21T13:43:01.001Z,13.99
2022-10-21T13:45:48.767Z,13.96
2022-10-21T13:48:16.483Z,13.92
2022-10-21T13:50:46.171Z,13.88
2022-10-21T13:53:21.804Z,13.80
2022-10-21T13:55:59.306Z,13.74
2022-10-21T13:58:27.221Z,13.69
2022-10-21T14:00:57.889Z,13.59
2022-10-21T16:05:43.679Z,12.41
2022-10-21T16:19:33.373Z,12.36
2022-10-21T16:22:37.161Z,12.37
2022-10-21T16:47:54.437Z,12.32
2022-10-21T16:50:56.539Z,12.37
2022-10-21T16:53:23.927Z,12.45
2022-10-21T16:55:50.555Z,12.58
2022-10-21T16:58:22.319Z,12.58
2022-10-21T17:00:50.234Z,12.68
2022-10-21T17:03:16.938Z,12.68
2022-10-21T17:05:43.619Z,12.70
2022-10-21T17:08:10.499Z,12.70
2022-10-21T17:10:37.250Z,12.73
2022-10-21T17:13:04.047Z,12.68
2022-10-21T17:15:30.911Z,12.65
2022-10-21T17:17:59.278Z,12.67
2022-10-21T17:20:32.903Z,12.71
2022-10-21T17:22:59.987Z,12.59
2022-10-21T17:25:30.512Z,12.51
2022-10-21T17:28:19.938Z,12.48
2022-10-21T17:30:46.401Z,12.43
2022-10-21T17:33:19.010Z,12.42
2022-10-21T17:35:53.181Z,12.40
2022-10-21T17:39:00.580Z,12.32
2022-10-21T17:47:57.345Z,12.25
2022-10-21T17:53:27.803Z,12.32
2022-10-21T17:56:00.019Z,12.30
2022-10-21T17:58:27.153Z,12.37
2022-10-21T18:01:23.302Z,12.33
2022-10-21T18:13:59.789Z,12.34
2022-10-21T18:16:45.096Z,12.34
2022-10-21T18:22:15.309Z,12.36
2022-10-21T18:26:34.991Z,12.33
2022-10-21T18:39:26.263Z,12.33
2022-10-21T18:42:30.709Z,12.32
2022-10-21T18:48:51.622Z,12.38
2022-10-21T18:51:55.353Z,12.41
2022-10-21T18:54:22.202Z,12.39
2022-10-21T18:56:48.881Z,12.43
2022-10-21T18:59:15.607Z,12.44
2022-10-21T19:01:42.361Z,12.42
2022-10-21T19:04:09.174Z,12.44
2022-10-21T19:06:45.431Z,12.46
2022-10-21T19:09:20.752Z,12.46
2022-10-21T19:11:47.925Z,12.45
2022-10-21T19:14:16.137Z,12.47
2022-10-21T19:16:43.766Z,12.46
2022-10-21T19:19:10.671Z,12.51
2022-10-21T19:21:37.328Z,12.56
2022-10-21T19:24:04.509Z,12.57
2022-10-21T19:26:32.559Z,12.57
2022-10-21T19:29:05.991Z,12.58
2022-10-21T19:31:36.281Z,12.60
2022-10-21T19:34:05.860Z,12.64
2022-10-21T19:36:32.519Z,12.65
2022-10-21T19:38:59.169Z,12.65
2022-10-21T19:41:25.854Z,12.68
2022-10-21T19:43:56.414Z,12.68
2022-10-21T19:46:25.530Z,12.68
2022-10-21T19:48:53.238Z,12.78
2022-10-21T19:51:22.422Z,12.81
2022-10-21T19:53:50.265Z,12.79
2022-10-21T19:56:20.901Z,12.80
2022-10-21T19:58:50.949Z,12.78
2022-10-21T20:01:21.220Z,12.81
2022-10-21T20:03:48.951Z,12.80
2022-10-21T20:06:21.845Z,12.81
2022-10-21T20:08:48.613Z,12.80
2022-10-21T20:11:17.776Z,12.83
2022-10-21T20:13:45.269Z,12.83
2022-10-21T20:16:21.303Z,12.85
2022-10-21T20:18:48.464Z,12.88
2022-10-21T20:21:15.273Z,12.90
2022-10-21T20:23:42.400Z,12.93
2022-10-21T20:26:09.278Z,12.97
2022-10-21T20:28:36.652Z,12.96
2022-10-21T20:31:04.666Z,12.96
2022-10-21T20:33:33.326Z,12.98
2022-10-21T20:36:04.615Z,13.00
2022-10-21T20:38:32.194Z,12.97
2022-10-21T20:41:06.440Z,12.97
2022-10-21T20:43:39.809Z,12.95
2022-10-21T20:46:09.062Z,12.97
2022-10-21T20:48:36.894Z,13.02
2022-10-21T20:51:11.584Z,13.04
2022-10-21T20:53:40.330Z,13.04
2022-10-21T20:56:07.494Z,13.01
2022-10-21T20:58:35.902Z,13.02
2022-10-21T21:01:10.111Z,13.04
2022-10-21T21:03:39.245Z,13.05
2022-10-21T21:06:25.680Z,13.04
2022-10-21T21:10:43.963Z,13.00
2022-10-21T21:29:17.656Z,12.97
